Time;durP1;ratioP1;P1;durP2;ratioP2;P2;SDS_P1;SDS_P2;PMS_P1;PMS_P2;Temp;Humidity;BMP_temperature;BMP_pressure;BME280_temperature;BME280_humidity;BME280_pressure;Samples;Min_cycle;Max_cycle;Signal;HPM_P1;HPM_P2
2022/05/21 00:01:49;;;;;;;;;;;16.70;97.90;;;;;;4316793;33;20010;-80
2022/05/21 00:04:24;;;;;;;;;;;16.70;98.00;;;;;;4316515;33;43389;-80
2022/05/21 00:06:58;;;;;;;;;;;16.70;98.00;;;;;;4303172;33;43755;-80
2022/05/21 00:09:33;;;;;;;;;;;16.70;98.00;;;;;;4303404;33;43883;-80
2022/05/21 00:12:01;;;;;;;;;;;16.70;98.00;;;;;;4316437;33;44035;-80
2022/05/21 00:14:31;;;;;;;;;;;16.60;97.90;;;;;;4316298;33;44812;-80
2022/05/21 00:17:02;;;;;;;;;;;16.60;97.90;;;;;;4303146;33;43224;-80
2022/05/21 00:19:29;;;;;;;;;;;16.60;97.90;;;;;;4302712;33;43788;-80
2022/05/21 00:21:58;;;;;;;;;;;16.50;97.90;;;;;;4302752;33;42918;-80
2022/05/21 00:24:26;;;;;;;;;;;16.50;97.90;;;;;;4302733;33;44420;-79
2022/05/21 00:26:59;;;;;;;;;;;16.50;97.90;;;;;;4315634;33;43304;-80
2022/05/21 00:29:28;;;;;;;;;;;16.50;98.00;;;;;;4302686;33;42866;-80
2022/05/21 00:31:55;;;;;;;;;;;16.50;97.80;;;;;;4316397;33;20419;-80
2022/05/21 00:34:22;;;;;;;;;;;16.50;97.90;;;;;;4315961;33;45197;-80
2022/05/21 00:36:50;;;;;;;;;;;16.40;97.90;;;;;;4316015;33;44219;-80
2022/05/21 00:39:17;;;;;;;;;;;16.50;97.80;;;;;;4315822;33;42865;-80
2022/05/21 00:41:47;;;;;;;;;;;16.40;97.70;;;;;;4302970;33;43249;-80
2022/05/21 00:44:14;;;;;;;;;;;16.40;97.80;;;;;;4314479;33;42873;-80
2022/05/21 00:46:43;;;;;;;;;;;16.40;97.80;;;;;;4302778;33;43458;-80
2022/05/21 00:49:23;;;;;;;;;;;16.40;97.70;;;;;;4304043;33;43486;-80
2022/05/21 00:51:56;;;;;;;;;;;16.40;97.90;;;;;;4307841;33;43869;-80
2022/05/21 00:54:28;;;;;;;;;;;16.30;97.60;;;;;;4307703;33;44155;-80
2022/05/21 00:56:57;;;;;;;;;;;16.30;97.70;;;;;;4307686;33;45795;-79
2022/05/21 01:02:18;;;;;;;;;;;16.30;97.60;;;;;;4321371;33;20010;-80
2022/05/21 01:04:48;;;;;;;;;;;16.20;97.60;;;;;;4307867;33;43197;-79
2022/05/21 01:07:21;;;;;;;;;;;16.20;97.50;;;;;;4307236;33;43220;-80
2022/05/21 01:09:50;;;;;;;;;;;16.20;97.70;;;;;;4320217;33;42446;-80
2022/05/21 01:12:17;;;;;;;;;;;16.20;97.30;;;;;;4320507;33;43672;-78
2022/05/21 01:14:50;;;;;;;;;;;16.20;97.20;;;;;;4320730;33;43934;-79
2022/05/21 01:17:23;;;;;;;;;;;16.20;97.10;;;;;;4320667;33;43742;-80
2022/05/21 01:20:00;;;;;;;;;;;16.20;97.00;;;;;;4307591;33;43872;-79
2022/05/21 01:22:36;;;;;;;;;;;16.20;97.20;;;;;;4307642;33;43448;-80
2022/05/21 01:25:11;;;;;;;;;;;16.10;97.10;;;;;;4320562;33;43774;-80
2022/05/21 01:27:41;;;;;;;;;;;16.20;97.30;;;;;;4307310;33;44199;-79
2022/05/21 01:30:10;;;;;;;;;;;16.10;97.20;;;;;;4320516;33;43018;-80
2022/05/21 01:32:50;;;;;;;;;;;16.10;97.20;;;;;;4320920;33;19989;-79
2022/05/21 01:35:23;;;;;;;;;;;16.10;96.90;;;;;;4307569;33;45723;-79
2022/05/21 01:37:50;;;;;;;;;;;16.10;97.00;;;;;;4307050;33;42930;-80
2022/05/21 01:40:25;;;;;;;;;;;16.10;97.20;;;;;;4320528;33;43212;-79
2022/05/21 01:45:38;;;;;;;;;;;16.00;96.80;;;;;;4320585;33;43326;-79
2022/05/21 01:48:06;;;;;;;;;;;16.00;96.90;;;;;;4320500;33;43269;-79
2022/05/21 01:50:39;;;;;;;;;;;16.00;97.00;;;;;;4306831;33;42926;-79
2022/05/21 01:53:10;;;;;;;;;;;16.00;97.00;;;;;;4307277;33;44554;-79
2022/05/21 01:55:37;;;;;;;;;;;15.90;96.90;;;;;;4320403;33;44262;-79
2022/05/21 01:58:05;;;;;;;;;;;15.90;96.90;;;;;;4319978;33;43026;-79
2022/05/21 02:00:32;;;;;;;;;;;15.90;97.30;;;;;;4319495;33;45490;-80
2022/05/21 02:02:59;;;;;;;;;;;15.90;96.80;;;;;;4317482;33;42524;-80
2022/05/21 02:05:31;;;;;;;;;;;15.90;97.00;;;;;;4317543;33;43625;-80
2022/05/21 02:07:59;;;;;;;;;;;15.90;96.90;;;;;;4316903;33;44291;-80
2022/05/21 02:10:33;;;;;;;;;;;15.80;96.80;;;;;;4316437;33;42542;-79
2022/05/21 02:13:02;;;;;;;;;;;15.80;96.90;;;;;;4318023;33;43875;-79
2022/05/21 02:15:31;;;;;;;;;;;15.80;96.90;;;;;;4317412;33;43478;-79
2022/05/21 02:18:01;;;;;;;;;;;15.80;96.80;;;;;;4317460;33;43900;-79
2022/05/21 02:20:31;;;;;;;;;;;15.80;96.70;;;;;;4317936;33;43226;-80
2022/05/21 02:22:58;;;;;;;;;;;15.80;96.90;;;;;;4317802;33;44297;-79
2022/05/21 02:25:27;;;;;;;;;;;15.70;96.80;;;;;;4317447;33;43102;-79
2022/05/21 02:27:57;;;;;;;;;;;15.70;96.80;;;;;;4317441;33;44105;-79
2022/05/21 02:30:27;;;;;;;;;;;15.70;96.80;;;;;;4316388;33;42691;-79
2022/05/21 02:32:59;;;;;;;;;;;15.70;96.80;;;;;;4304681;33;26887;-79
2022/05/21 02:35:26;;;;;;;;;;;15.70;96.70;;;;;;4317272;33;43379;-79
2022/05/21 02:40:47;;;;;;;;;;;15.60;96.70;;;;;;4317203;33;42070;-79
2022/05/21 02:43:14;;;;;;;;;;;15.60;96.90;;;;;;4317172;33;43571;-79
2022/05/21 02:45:44;;;;;;;;;;;15.60;96.90;;;;;;4317389;33;43582;-79
2022/05/21 02:48:16;;;;;;;;;;;15.50;96.70;;;;;;4317137;33;44219;-79
2022/05/21 02:50:46;;;;;;;;;;;15.50;96.70;;;;;;4317290;33;42501;-79
2022/05/21 02:53:21;;;;;;;;;;;15.50;96.70;;;;;;4316810;33;42743;-79
2022/05/21 02:55:51;;;;;;;;;;;15.50;96.80;;;;;;4317349;33;42179;-79
2022/05/21 02:58:18;;;;;;;;;;;15.50;96.90;;;;;;4304176;33;43317;-79
2022/05/21 03:00:45;;;;;;;;;;;15.50;96.90;;;;;;4315776;33;46117;-77
2022/05/21 03:03:18;;;;;;;;;;;15.50;96.80;;;;;;4316987;33;42905;-79
2022/05/21 03:05:45;;;;;;;;;;;15.50;96.90;;;;;;4317015;33;44223;-79
2022/05/21 03:11:01;;;;;;;;;;;15.50;97.00;;;;;;4316671;33;43776;-80
2022/05/21 03:13:31;;;;;;;;;;;15.50;97.00;;;;;;4315879;33;43244;-79
2022/05/21 03:16:04;;;;;;;;;;;15.50;97.10;;;;;;4316781;33;43508;-79
2022/05/21 03:18:33;;;;;;;;;;;15.40;97.10;;;;;;4317152;33;43272;-80
2022/05/21 03:21:03;;;;;;;;;;;15.40;97.30;;;;;;4315884;33;44678;-79
2022/05/21 03:23:36;;;;;;;;;;;15.50;97.40;;;;;;4315280;33;45125;-79
2022/05/21 03:26:06;;;;;;;;;;;15.40;97.30;;;;;;4304031;33;43978;-80
2022/05/21 03:28:33;;;;;;;;;;;15.40;97.40;;;;;;4316651;33;42827;-79
2022/05/21 03:31:02;;;;;;;;;;;15.50;97.50;;;;;;4316719;33;44239;-79
2022/05/21 03:33:32;;;;;;;;;;;15.40;97.50;;;;;;4316642;33;42847;-80
2022/05/21 03:36:04;;;;;;;;;;;15.40;97.50;;;;;;4317137;33;20037;-80
2022/05/21 03:38:37;;;;;;;;;;;15.40;97.50;;;;;;4316528;33;43058;-80
2022/05/21 03:41:04;;;;;;;;;;;15.40;97.50;;;;;;4316836;33;44366;-79
2022/05/21 03:43:37;;;;;;;;;;;15.40;97.50;;;;;;4316423;33;43453;-79
2022/05/21 03:46:09;;;;;;;;;;;15.40;97.50;;;;;;4316744;33;43093;-79
2022/05/21 03:48:40;;;;;;;;;;;15.40;97.60;;;;;;4303142;33;42835;-79
2022/05/21 03:51:07;;;;;;;;;;;15.40;97.60;;;;;;4316186;33;43463;-79
2022/05/21 03:53:36;;;;;;;;;;;15.40;97.60;;;;;;4316022;33;42932;-79
2022/05/21 03:56:09;;;;;;;;;;;15.40;97.70;;;;;;4314921;33;44106;-79
2022/05/21 03:58:47;;;;;;;;;;;15.40;97.70;;;;;;4316557;33;43559;-79
2022/05/21 04:01:14;;;;;;;;;;;15.40;97.70;;;;;;4303254;33;44366;-79
2022/05/21 04:03:48;;;;;;;;;;;15.30;97.80;;;;;;4315798;33;43266;-79
2022/05/21 04:06:21;;;;;;;;;;;15.40;97.90;;;;;;4304319;33;19994;-79
2022/05/21 04:08:49;;;;;;;;;;;15.30;98.00;;;;;;4315976;33;43035;-79
2022/05/21 04:11:22;;;;;;;;;;;15.30;98.00;;;;;;4303124;33;44211;-79
2022/05/21 04:13:55;;;;;;;;;;;15.30;98.00;;;;;;4315833;33;43361;-79
2022/05/21 04:16:28;;;;;;;;;;;15.30;98.10;;;;;;4315475;33;42890;-79
2022/05/21 04:18:55;;;;;;;;;;;15.30;98.10;;;;;;4316182;33;42914;-80
2022/05/21 04:21:30;;;;;;;;;;;15.30;98.20;;;;;;4315849;33;43269;-79
2022/05/21 04:23:57;;;;;;;;;;;15.30;98.20;;;;;;4316005;33;43694;-79
2022/05/21 04:26:27;;;;;;;;;;;15.30;98.20;;;;;;4314589;33;43774;-79
2022/05/21 04:28:58;;;;;;;;;;;15.30;98.30;;;;;;4314660;33;43903;-79
2022/05/21 04:31:28;;;;;;;;;;;15.30;98.30;;;;;;4302712;33;43241;-79
2022/05/21 04:33:59;;;;;;;;;;;15.30;98.70;;;;;;4316131;33;43723;-78
2022/05/21 04:36:26;;;;;;;;;;;15.30;98.40;;;;;;4316898;33;20006;-79
2022/05/21 04:38:56;;;;;;;;;;;15.30;98.40;;;;;;4315051;33;42275;-78
2022/05/21 04:41:26;;;;;;;;;;;15.30;98.40;;;;;;4302444;33;43913;-79
2022/05/21 04:43:53;;;;;;;;;;;15.30;98.50;;;;;;4302486;33;42907;-79
2022/05/21 04:46:24;;;;;;;;;;;15.20;98.50;;;;;;4315597;33;43278;-79
2022/05/21 04:48:55;;;;;;;;;;;15.30;98.60;;;;;;4303110;33;43683;-79
2022/05/21 04:51:34;;;;;;;;;;;15.20;98.60;;;;;;4314602;33;42824;-79
2022/05/21 04:54:04;;;;;;;;;;;15.20;98.70;;;;;;4315711;33;43557;-79
2022/05/21 04:56:34;;;;;;;;;;;15.20;98.80;;;;;;4302265;33;43697;-78
2022/05/21 04:59:14;;;;;;;;;;;15.20;98.70;;;;;;4315959;33;43050;-78
2022/05/21 05:01:42;;;;;;;;;;;15.20;98.80;;;;;;4315780;33;42061;-78
2022/05/21 05:04:12;;;;;;;;;;;15.20;98.70;;;;;;4302951;33;43104;-79
2022/05/21 05:06:46;;;;;;;;;;;15.20;98.80;;;;;;4315412;33;43057;-78
2022/05/21 05:09:27;;;;;;;;;;;15.20;98.90;;;;;;4315929;33;45792;-78
2022/05/21 05:11:54;;;;;;;;;;;15.20;99.00;;;;;;4315409;33;43645;-78
2022/05/21 05:14:22;;;;;;;;;;;15.20;99.10;;;;;;4315674;33;43267;-78
2022/05/21 05:16:52;;;;;;;;;;;15.20;99.10;;;;;;4315405;33;43179;-78
2022/05/21 05:19:40;;;;;;;;;;;15.20;99.20;;;;;;4315323;33;42598;-78
2022/05/21 05:22:10;;;;;;;;;;;15.20;99.30;;;;;;4315867;33;44533;-78
2022/05/21 05:24:37;;;;;;;;;;;15.20;99.50;;;;;;4315733;33;43661;-78
2022/05/21 05:27:07;;;;;;;;;;;15.20;99.50;;;;;;4315495;33;42833;-78
2022/05/21 05:29:37;;;;;;;;;;;15.20;99.70;;;;;;4315643;33;42198;-79
2022/05/21 05:32:05;;;;;;;;;;;15.20;99.70;;;;;;4315259;33;44184;-78
2022/05/21 05:34:35;;;;;;;;;;;15.20;99.70;;;;;;4302392;33;44155;-78
2022/05/21 05:37:05;;;;;;;;;;;15.20;99.60;;;;;;4317334;33;20769;-78
2022/05/21 05:39:35;;;;;;;;;;;15.30;99.70;;;;;;4317956;33;43662;-78
2022/05/21 05:42:05;;;;;;;;;;;15.20;99.90;;;;;;4317063;33;42566;-79
2022/05/21 05:44:34;;;;;;;;;;;15.20;99.70;;;;;;4318439;33;43691;-78
2022/05/21 05:47:01;;;;;;;;;;;15.30;99.80;;;;;;4318101;33;42513;-78
2022/05/21 05:49:30;;;;;;;;;;;15.20;99.90;;;;;;4317788;33;44275;-78
2022/05/21 05:51:58;;;;;;;;;;;15.20;99.90;;;;;;4317861;33;42893;-78
2022/05/21 05:54:37;;;;;;;;;;;15.20;99.90;;;;;;4317962;33;43430;-78
2022/05/21 05:57:16;;;;;;;;;;;15.20;99.90;;;;;;4304855;33;44240;-78
2022/05/21 05:59:48;;;;;;;;;;;15.20;99.90;;;;;;4316954;33;43424;-78
2022/05/21 06:03:02;;;;;;;;;;;15.20;99.90;;;;;;4317717;33;42811;-78
2022/05/21 06:05:20;;;;;;;;;;;15.20;99.90;;;;;;4312011;33;42871;-78
2022/05/21 06:07:54;;;;;;;;;;;15.20;99.90;;;;;;4318803;33;19998;-78
2022/05/21 06:10:24;;;;;;;;;;;15.30;99.90;;;;;;4318082;33;43013;-79
2022/05/21 06:13:00;;;;;;;;;;;15.30;99.90;;;;;;4317697;33;42111;-78
2022/05/21 06:15:32;;;;;;;;;;;15.30;99.90;;;;;;4317833;33;45168;-78
2022/05/21 06:18:07;;;;;;;;;;;15.30;99.90;;;;;;4318048;33;44259;-78
2022/05/21 06:20:37;;;;;;;;;;;15.30;99.90;;;;;;4317962;33;43453;-79
2022/05/21 06:23:04;;;;;;;;;;;15.30;99.90;;;;;;4304324;33;43757;-79
2022/05/21 06:25:36;;;;;;;;;;;15.30;99.90;;;;;;4317598;33;43308;-78
2022/05/21 06:28:09;;;;;;;;;;;15.30;99.90;;;;;;4317767;33;44399;-78
2022/05/21 06:30:39;;;;;;;;;;;15.30;99.90;;;;;;4317830;33;43807;-78
2022/05/21 06:33:17;;;;;;;;;;;15.30;99.90;;;;;;4317322;33;43832;-79
2022/05/21 06:35:45;;;;;;;;;;;15.40;99.90;;;;;;4304526;33;43961;-79
2022/05/21 06:38:15;;;;;;;;;;;15.30;99.90;;;;;;4318025;33;20415;-79
2022/05/21 06:40:42;;;;;;;;;;;15.30;99.90;;;;;;4304488;33;43960;-78
2022/05/21 06:43:11;;;;;;;;;;;15.40;99.90;;;;;;4315955;33;44333;-78
2022/05/21 06:45:41;;;;;;;;;;;15.40;99.90;;;;;;4317089;33;42919;-78
2022/05/21 06:48:08;;;;;;;;;;;15.40;99.90;;;;;;4317464;33;42910;-78
2022/05/21 06:50:38;;;;;;;;;;;15.40;99.90;;;;;;4316830;33;44492;-78
2022/05/21 06:53:08;;;;;;;;;;;15.40;99.90;;;;;;4303824;33;43112;-78
2022/05/21 06:55:37;;;;;;;;;;;15.40;99.90;;;;;;4304097;33;44269;-78
2022/05/21 06:58:09;;;;;;;;;;;15.40;99.90;;;;;;4316944;33;43325;-78
2022/05/21 07:00:37;;;;;;;;;;;15.40;99.90;;;;;;4317303;33;45238;-79
2022/05/21 07:03:12;;;;;;;;;;;15.40;99.90;;;;;;4315714;33;43574;-78
2022/05/21 07:08:28;;;;;;;;;;;15.40;99.90;;;;;;4317899;33;24323;-79
2022/05/21 07:10:56;;;;;;;;;;;15.40;99.90;;;;;;4316833;33;43254;-78
2022/05/21 07:13:30;;;;;;;;;;;15.40;99.90;;;;;;4303561;33;42905;-78
2022/05/21 07:15:58;;;;;;;;;;;15.50;99.90;;;;;;4317057;33;43021;-78
2022/05/21 07:18:27;;;;;;;;;;;15.50;99.90;;;;;;4316818;33;42681;-78
2022/05/21 07:20:57;;;;;;;;;;;15.50;99.90;;;;;;4316509;33;43730;-78
2022/05/21 07:23:25;;;;;;;;;;;15.50;99.90;;;;;;4316971;33;44080;-78
2022/05/21 07:25:55;;;;;;;;;;;15.50;99.90;;;;;;4316813;33;42512;-78
2022/05/21 07:28:30;;;;;;;;;;;15.50;99.90;;;;;;4316908;33;43065;-78
2022/05/21 07:31:00;;;;;;;;;;;15.50;99.90;;;;;;4316447;33;42584;-78
2022/05/21 07:33:27;;;;;;;;;;;15.50;99.90;;;;;;4316466;33;43897;-79
2022/05/21 07:35:54;;;;;;;;;;;15.50;99.90;;;;;;4316581;33;45039;-78
2022/05/21 07:38:21;;;;;;;;;;;15.50;99.90;;;;;;4316761;33;43473;-78
2022/05/21 07:40:52;;;;;;;;;;;15.50;99.90;;;;;;4316266;33;42781;-78
2022/05/21 07:43:27;;;;;;;;;;;15.50;99.90;;;;;;4316336;33;42136;-78
2022/05/21 07:45:58;;;;;;;;;;;15.50;99.90;;;;;;4316195;33;42841;-78
2022/05/21 07:48:28;;;;;;;;;;;15.50;99.90;;;;;;4304048;33;43814;-78
2022/05/21 07:50:56;;;;;;;;;;;15.50;99.90;;;;;;4303350;33;42856;-78
2022/05/21 07:53:29;;;;;;;;;;;15.50;99.90;;;;;;4302937;33;42937;-78
2022/05/21 07:55:57;;;;;;;;;;;15.50;99.90;;;;;;4303146;33;42545;-78
2022/05/21 07:58:28;;;;;;;;;;;15.50;99.90;;;;;;4303151;33;42934;-78
2022/05/21 08:00:55;;;;;;;;;;;15.60;99.90;;;;;;4316287;33;43869;-78
2022/05/21 08:03:26;;;;;;;;;;;15.60;99.90;;;;;;4303089;33;43910;-78
2022/05/21 08:05:55;;;;;;;;;;;15.60;99.90;;;;;;4316030;33;42467;-78
2022/05/21 08:08:26;;;;;;;;;;;15.60;99.90;;;;;;4314973;33;43030;-78
2022/05/21 08:10:59;;;;;;;;;;;15.60;99.90;;;;;;4315522;33;43766;-78
2022/05/21 08:13:30;;;;;;;;;;;15.60;99.90;;;;;;4303418;33;43019;-78
2022/05/21 08:16:02;;;;;;;;;;;15.60;99.90;;;;;;4316275;33;43096;-77
2022/05/21 08:18:31;;;;;;;;;;;15.60;99.90;;;;;;4315645;33;43057;-78
2022/05/21 08:20:58;;;;;;;;;;;15.60;99.90;;;;;;4315814;33;43666;-78
2022/05/21 08:29:00;;;;;;;;;;;15.60;99.90;;;;;;4316312;33;43722;-78
2022/05/21 08:31:30;;;;;;;;;;;15.60;99.90;;;;;;4316127;33;42839;-77
2022/05/21 08:33:57;;;;;;;;;;;15.60;99.90;;;;;;4314759;33;45257;-78
2022/05/21 08:36:26;;;;;;;;;;;15.60;99.90;;;;;;4315545;33;43473;-77
2022/05/21 08:38:56;;;;;;;;;;;15.60;99.90;;;;;;4315562;33;42491;-77
2022/05/21 08:41:25;;;;;;;;;;;15.60;99.90;;;;;;4302938;33;43082;-78
2022/05/21 08:44:09;;;;;;;;;;;15.60;99.90;;;;;;4302839;33;43027;-78
2022/05/21 08:46:58;;;;;;;;;;;15.60;99.90;;;;;;4303027;33;44247;-78
2022/05/21 08:49:34;;;;;;;;;;;15.70;99.90;;;;;;4303017;33;43707;-77
2022/05/21 08:52:19;;;;;;;;;;;15.70;99.90;;;;;;4315541;33;43308;-77
2022/05/21 08:54:50;;;;;;;;;;;15.70;99.90;;;;;;4316005;33;43039;-77
2022/05/21 08:57:22;;;;;;;;;;;15.70;99.90;;;;;;4315630;33;42043;-77
2022/05/21 08:59:55;;;;;;;;;;;15.60;99.90;;;;;;4316011;33;43032;-77
2022/05/21 09:02:28;;;;;;;;;;;15.70;99.90;;;;;;4302567;33;43560;-78
2022/05/21 09:04:57;;;;;;;;;;;15.70;99.90;;;;;;4315700;33;43931;-77
2022/05/21 09:07:29;;;;;;;;;;;15.70;99.90;;;;;;4315961;33;44187;-76
2022/05/21 09:10:07;;;;;;;;;;;15.70;99.90;;;;;;4315989;33;42119;-77
2022/05/21 09:12:42;;;;;;;;;;;15.70;99.90;;;;;;4319206;33;20041;-77
2022/05/21 09:16:54;;;;;;;;;;;15.70;99.90;;;;;;4318843;33;44187;-77
2022/05/21 09:18:05;;;;;;;;;;;15.70;99.90;;;;;;4317945;33;42144;-78
2022/05/21 09:20:38;;;;;;;;;;;15.70;99.80;;;;;;4318547;33;43252;-77
2022/05/21 09:23:05;;;;;;;;;;;15.70;99.80;;;;;;4305569;33;42485;-77
2022/05/21 09:25:34;;;;;;;;;;;15.80;99.90;;;;;;4318253;33;43742;-77
2022/05/21 09:28:06;;;;;;;;;;;15.80;99.70;;;;;;4318117;33;43980;-77
2022/05/21 09:30:35;;;;;;;;;;;15.80;99.70;;;;;;4305437;33;44802;-77
2022/05/21 09:33:22;;;;;;;;;;;15.80;99.90;;;;;;4305084;33;43732;-77
2022/05/21 09:35:53;;;;;;;;;;;15.80;99.80;;;;;;4318520;33;43074;-77
2022/05/21 09:38:25;;;;;;;;;;;15.80;99.90;;;;;;4305553;33;43617;-77
2022/05/21 09:41:12;;;;;;;;;;;15.80;99.70;;;;;;4306453;33;20108;-76
2022/05/21 09:46:40;;;;;;;;;;;15.80;99.30;;;;;;4303747;33;43650;-76
2022/05/21 09:49:28;;;;;;;;;;;15.80;99.40;;;;;;4318455;33;43002;-77
2022/05/21 09:52:19;;;;;;;;;;;15.90;99.50;;;;;;4318294;33;44901;-77
2022/05/21 09:54:49;;;;;;;;;;;15.80;99.50;;;;;;4295923;33;42393;-77
2022/05/21 09:57:24;;;;;;;;;;;15.90;99.60;;;;;;4317931;33;42882;-77
2022/05/21 10:00:04;;;;;;;;;;;15.90;99.20;;;;;;4317704;33;43032;-77
2022/05/21 10:02:43;;;;;;;;;;;15.90;99.20;;;;;;4304747;33;45974;-77
2022/05/21 10:05:15;;;;;;;;;;;15.90;99.30;;;;;;4317672;33;43683;-77
2022/05/21 10:13:31;;;;;;;;;;;15.90;99.50;;;;;;4318149;33;43039;-77
2022/05/21 10:16:18;;;;;;;;;;;16.00;99.50;;;;;;4317589;33;42476;-77
2022/05/21 10:18:55;;;;;;;;;;;16.00;99.40;;;;;;4304474;33;42911;-77
2022/05/21 10:21:23;;;;;;;;;;;16.00;99.30;;;;;;4318266;33;43906;-77
2022/05/21 10:23:53;;;;;;;;;;;16.00;99.10;;;;;;4303864;33;42573;-77
2022/05/21 10:26:39;;;;;;;;;;;16.00;99.20;;;;;;4316373;33;42907;-77
2022/05/21 10:29:25;;;;;;;;;;;16.00;98.90;;;;;;4304720;33;43829;-77
2022/05/21 10:31:59;;;;;;;;;;;16.00;99.10;;;;;;4317924;33;43077;-77
2022/05/21 10:34:39;;;;;;;;;;;16.10;99.40;;;;;;4304939;33;43672;-77
2022/05/21 10:37:18;;;;;;;;;;;16.10;99.20;;;;;;4317629;33;43871;-77
2022/05/21 10:40:18;;;;;;;;;;;16.10;99.10;;;;;;4317453;33;43485;-77
2022/05/21 10:42:57;;;;;;;;;;;16.10;99.40;;;;;;4265182;33;42589;-77
2022/05/21 10:45:33;;;;;;;;;;;16.20;99.00;;;;;;4318156;33;20002;-77
2022/05/21 10:48:23;;;;;;;;;;;16.20;98.80;;;;;;4317077;33;42891;-77
2022/05/21 10:51:01;;;;;;;;;;;16.20;98.90;;;;;;4317478;33;43412;-77
2022/05/21 10:53:47;;;;;;;;;;;16.20;98.80;;;;;;4316955;33;43667;-77
2022/05/21 10:56:14;;;;;;;;;;;16.20;98.90;;;;;;4317486;33;43067;-77
2022/05/21 10:58:42;;;;;;;;;;;16.20;99.10;;;;;;4303874;33;42957;-78
2022/05/21 11:01:15;;;;;;;;;;;16.20;99.00;;;;;;4316905;33;45717;-77
2022/05/21 11:03:42;;;;;;;;;;;16.20;98.80;;;;;;4303499;33;45795;-77
2022/05/21 11:06:30;;;;;;;;;;;16.30;98.60;;;;;;4317249;33;45727;-77
2022/05/21 11:09:16;;;;;;;;;;;16.30;98.60;;;;;;4316716;33;42480;-77
2022/05/21 11:12:01;;;;;;;;;;;16.30;98.60;;;;;;4316684;33;42393;-77
2022/05/21 11:14:37;;;;;;;;;;;16.30;98.70;;;;;;4316761;33;42591;-77
2022/05/21 11:17:16;;;;;;;;;;;16.30;98.50;;;;;;4316676;33;42897;-77
2022/05/21 11:19:48;;;;;;;;;;;16.30;98.60;;;;;;4317103;33;43697;-77
2022/05/21 11:22:27;;;;;;;;;;;16.40;98.70;;;;;;4317036;33;43843;-77
2022/05/21 11:25:16;;;;;;;;;;;16.40;98.50;;;;;;4303377;33;44243;-77
2022/05/21 11:27:57;;;;;;;;;;;16.40;98.50;;;;;;4304026;33;44305;-77
2022/05/21 11:30:31;;;;;;;;;;;16.40;98.60;;;;;;4316906;33;43467;-77
2022/05/21 11:38:38;;;;;;;;;;;16.50;98.40;;;;;;4316849;33;43627;-77
2022/05/21 11:46:48;;;;;;;;;;;16.60;98.00;;;;;;4316552;33;44208;-77
2022/05/21 11:49:27;;;;;;;;;;;16.60;98.00;;;;;;4316625;33;43990;-77
2022/05/21 11:52:00;;;;;;;;;;;16.60;97.30;;;;;;4316880;33;44179;-77
2022/05/21 11:54:46;;;;;;;;;;;16.70;97.70;;;;;;4303570;33;44009;-78
2022/05/21 11:57:32;;;;;;;;;;;16.60;97.20;;;;;;4316584;33;43866;-77
2022/05/21 12:00:01;;;;;;;;;;;16.70;97.40;;;;;;4303091;33;43139;-78
2022/05/21 12:02:36;;;;;;;;;;;16.70;97.30;;;;;;4316044;33;43738;-78
2022/05/21 12:05:07;;;;;;;;;;;16.70;97.60;;;;;;4302856;33;43207;-78
2022/05/21 12:07:38;;;;;;;;;;;16.70;96.80;;;;;;4316247;33;43754;-77
2022/05/21 12:10:13;;;;;;;;;;;16.80;96.80;;;;;;4316421;33;43735;-78
2022/05/21 12:12:59;;;;;;;;;;;16.80;97.10;;;;;;4316569;33;43478;-78
2022/05/21 12:15:39;;;;;;;;;;;16.80;97.20;;;;;;4303410;33;43673;-79
2022/05/21 12:18:26;;;;;;;;;;;16.80;97.00;;;;;;4315829;33;20146;-78
2022/05/21 12:20:53;;;;;;;;;;;16.80;96.90;;;;;;4303213;33;42803;-78
2022/05/21 12:23:33;;;;;;;;;;;16.90;96.90;;;;;;4314739;33;43761;-77
2022/05/21 12:26:04;;;;;;;;;;;16.90;97.10;;;;;;4303210;33;43181;-77
2022/05/21 12:28:34;;;;;;;;;;;16.90;97.00;;;;;;4303012;33;43399;-77
2022/05/21 12:31:04;;;;;;;;;;;16.90;96.80;;;;;;4302925;33;43380;-78
2022/05/21 12:33:35;;;;;;;;;;;16.90;96.60;;;;;;4316365;33;43261;-78
2022/05/21 12:36:18;;;;;;;;;;;16.90;96.60;;;;;;4315822;33;43486;-78
2022/05/21 12:38:47;;;;;;;;;;;16.90;96.30;;;;;;4316253;33;43866;-77
2022/05/21 12:41:23;;;;;;;;;;;17.00;96.80;;;;;;4302616;33;44436;-78
2022/05/21 12:43:56;;;;;;;;;;;17.00;96.60;;;;;;4303261;33;43029;-78
2022/05/21 12:46:32;;;;;;;;;;;17.00;96.30;;;;;;4315286;33;42872;-78
2022/05/21 12:49:04;;;;;;;;;;;17.00;96.80;;;;;;4303765;33;19994;-77
2022/05/21 12:51:33;;;;;;;;;;;17.00;96.80;;;;;;4303124;33;43196;-77
2022/05/21 12:54:17;;;;;;;;;;;17.10;96.70;;;;;;4316055;33;43035;-77
2022/05/21 12:56:47;;;;;;;;;;;17.10;96.80;;;;;;4315553;33;43642;-77
2022/05/21 12:59:29;;;;;;;;;;;17.20;96.70;;;;;;4315861;33;42253;-77
2022/05/21 13:02:01;;;;;;;;;;;17.20;96.60;;;;;;4315283;33;42901;-77
2022/05/21 13:04:30;;;;;;;;;;;17.20;96.40;;;;;;4315440;33;41719;-77
2022/05/21 13:06:57;;;;;;;;;;;17.20;96.30;;;;;;4315434;33;43380;-78
2022/05/21 13:09:25;;;;;;;;;;;17.20;96.30;;;;;;4302860;33;43076;-77
2022/05/21 13:11:58;;;;;;;;;;;17.20;96.30;;;;;;4302702;33;44053;-77
2022/05/21 13:14:30;;;;;;;;;;;17.30;96.60;;;;;;4302295;33;44235;-78
2022/05/21 13:16:58;;;;;;;;;;;17.30;96.50;;;;;;4315807;33;43315;-78
2022/05/21 13:19:34;;;;;;;;;;;17.30;96.30;;;;;;4315758;33;43564;-77
2022/05/21 13:22:09;;;;;;;;;;;17.40;96.10;;;;;;4302810;33;43090;-77
2022/05/21 13:24:39;;;;;;;;;;;17.30;96.10;;;;;;4315648;33;43025;-78
2022/05/21 13:27:08;;;;;;;;;;;17.40;96.10;;;;;;4302130;33;43875;-77
2022/05/21 13:29:43;;;;;;;;;;;17.40;96.30;;;;;;4315615;33;45306;-77
2022/05/21 13:32:25;;;;;;;;;;;17.40;96.70;;;;;;4302295;33;43451;-77
2022/05/21 13:34:59;;;;;;;;;;;17.40;96.50;;;;;;4315884;33;44152;-77
2022/05/21 13:37:29;;;;;;;;;;;17.50;96.50;;;;;;4315866;33;44182;-77
2022/05/21 13:39:59;;;;;;;;;;;17.50;96.20;;;;;;4315656;33;43137;-77
2022/05/21 13:42:29;;;;;;;;;;;17.50;96.20;;;;;;4315111;33;43493;-77
2022/05/21 13:45:04;;;;;;;;;;;17.60;96.60;;;;;;4303028;33;43859;-77
2022/05/21 13:47:33;;;;;;;;;;;17.60;96.40;;;;;;4315523;33;42538;-77
2022/05/21 13:50:02;;;;;;;;;;;17.60;96.20;;;;;;4316347;33;19999;-77
2022/05/21 13:52:32;;;;;;;;;;;17.60;96.30;;;;;;4315038;33;44356;-77
2022/05/21 13:55:02;;;;;;;;;;;17.60;96.40;;;;;;4302178;33;43851;-77
2022/05/21 13:57:31;;;;;;;;;;;17.60;96.20;;;;;;4316574;33;43697;-77
2022/05/21 14:00:06;;;;;;;;;;;17.70;96.10;;;;;;4318260;33;44859;-77
2022/05/21 14:02:38;;;;;;;;;;;17.70;96.00;;;;;;4304914;33;43087;-77
2022/05/21 14:05:24;;;;;;;;;;;17.70;96.00;;;;;;4318132;33;42145;-77
2022/05/21 14:08:10;;;;;;;;;;;17.70;96.00;;;;;;4304718;33;42901;-77
2022/05/21 14:10:49;;;;;;;;;;;17.80;96.20;;;;;;4305099;33;43516;-77
2022/05/21 14:13:35;;;;;;;;;;;17.80;96.20;;;;;;4317906;33;43334;-77
2022/05/21 14:16:21;;;;;;;;;;;17.80;96.10;;;;;;4317991;33;43039;-77
2022/05/21 14:19:24;;;;;;;;;;;17.80;96.10;;;;;;4304959;33;43210;-77
2022/05/21 14:22:14;;;;;;;;;;;17.80;95.80;;;;;;4278907;33;43871;-77
2022/05/21 14:24:43;;;;;;;;;;;17.80;96.00;;;;;;4317478;33;42882;-77
2022/05/21 14:27:24;;;;;;;;;;;17.90;95.80;;;;;;4317600;33;43736;-77
2022/05/21 14:30:04;;;;;;;;;;;17.90;96.20;;;;;;4304769;33;43494;-77
2022/05/21 14:32:31;;;;;;;;;;;17.90;96.20;;;;;;4304757;33;43863;-77
2022/05/21 14:35:17;;;;;;;;;;;17.90;96.00;;;;;;4317497;33;44199;-77
2022/05/21 14:37:46;;;;;;;;;;;17.90;95.90;;;;;;4317060;33;43779;-77
2022/05/21 14:40:14;;;;;;;;;;;17.90;96.10;;;;;;4304589;33;42899;-77
2022/05/21 14:42:41;;;;;;;;;;;18.00;96.50;;;;;;4317655;33;43894;-77
2022/05/21 14:45:13;;;;;;;;;;;18.00;95.90;;;;;;4304116;33;44333;-77
2022/05/21 14:47:52;;;;;;;;;;;18.00;95.80;;;;;;4317526;33;45747;-77
2022/05/21 14:53:10;;;;;;;;;;;18.00;96.30;;;;;;4317981;33;20737;-77
2022/05/21 14:55:43;;;;;;;;;;;18.10;96.30;;;;;;4317400;33;43717;-77
2022/05/21 14:58:12;;;;;;;;;;;18.10;96.40;;;;;;4317441;33;43252;-78
2022/05/21 15:00:42;;;;;;;;;;;18.10;96.30;;;;;;4316793;33;42629;-77
2022/05/21 15:03:09;;;;;;;;;;;18.10;96.30;;;;;;4301482;33;43667;-77
2022/05/21 15:05:41;;;;;;;;;;;18.20;96.60;;;;;;4302771;33;43777;-77
2022/05/21 15:08:15;;;;;;;;;;;18.20;96.30;;;;;;4301175;33;44161;-77
2022/05/21 15:10:44;;;;;;;;;;;18.20;96.30;;;;;;4301295;33;42487;-77
2022/05/21 15:13:19;;;;;;;;;;;18.20;96.60;;;;;;4302184;33;43926;-76
2022/05/21 15:15:48;;;;;;;;;;;18.20;95.80;;;;;;4301484;33;43083;-77
2022/05/21 15:18:24;;;;;;;;;;;18.20;96.00;;;;;;4300982;33;42865;-77
2022/05/21 15:20:51;;;;;;;;;;;18.30;96.20;;;;;;4302611;33;44232;-77
2022/05/21 15:23:21;;;;;;;;;;;18.30;96.30;;;;;;4314498;33;20002;-77
2022/05/21 15:25:51;;;;;;;;;;;18.30;96.20;;;;;;4302428;33;43232;-77
2022/05/21 15:28:21;;;;;;;;;;;18.30;96.20;;;;;;4313455;33;43477;-77
2022/05/21 15:30:56;;;;;;;;;;;18.30;96.30;;;;;;4301937;33;43505;-77